Mahlon Sweet Field
KEUG : now visible

Airfield :











YOU CAN JOIN US ON...

 
LOGIN :

Register | Disclaimer

   EN    FR    IT 

 









Legend :    VFR   Marginal VFR   IFR   Intensive IFR   Very Intensive IFR
Visi :
Ceiling :
>= 8 km
>= 3000ft
5 to 8 km
1000 to 3000 ft
1500m to 5 km
500 to 1000 ft
800 to 1500m
200 to 500 ft
< 800m
< 200 ft
Symbols :   Thunderstorms  Fog  Heavy snow  Heavy precipitations  Wind > 20 kt






- Airport Elevation : 374 ft
- IATA code : EUG


KEUG - Mahlon Sweet Field

CURRENT METAR :
  • 150754Z AUTO 00000KT 10SM FEW043 BKN050 OVC070 04/02 A3004 RMK AO2 SLP175 T00390022 400780011 $

EXPIRED METARs :
  • 150654Z 00000KT 10SM BKN035 OVC050 05/03 A3003 RMK AO2 SLP170 P0000 T00500033 $
  • 150554Z 08008KT 10SM -RA OVC050 06/03 A3001 RMK AO2 RAB11E25B50 SLP164 P0001 60009 T00560028 10072 20050 53010

TAF KEUG
Valid from the 15 at 06:00 until the 16 at 06:00 UTC


150535Z 1506/1606 VRB03KT P6SM VCSH SCT030 BKN050
FM150800 10006KT 3SM BR SCT005 BKN025
FM150900 00000KT 1SM BR OVC005
FM151900 21003KT 5SM BR BKN015 OVC030
FM152100 20005KT P6SM SCT015 OVC060
FM160500 15005KT 6SM BR SCT011 OVC028



MET'MAP, your aeronautical weather chart ! - Copyright ORBIFLY December 2007 - Disclaimer

ORBIFLY MET'MAP TEAM :

Programming & Development : Alexandra Zaïnal
Concept & original design : Baudouin d'Aumeries
Assistance for programming : Marc-Olivier Méhu
Technical & hardware support : Manuel Goepfert

Contact : metmap@orbifly.com




SOURCES & CREDITS :

   NOAA       Earth
Advisory